KBAF

Westfield-Barnes Regional Airport

Westfield/Springfield, Massachusetts, USA
METAR KBAF 191653Z 05010G16KT 10SM FEW075 24/14 A3002 RMK AO2 SLP164 T02440139
Observed Flight Rules
Aug-19 @ 16:53 UTC (19 minutes ago) Visual Flight Rules
Wind Visibility Clouds
50° at 10 knots
 Gusting to 16 knots
10 miles
  • Few at 7,500' AGL
Temperatures Readings
Current 24°C / 75°F
Dewpoint 14°C / 57°F
Humidity 54%
Altimeter 30.02" Hg
Pressure 1016.4 hPa
Elevation 83
METAR KBAF 191653Z 05010G16KT 10SM FEW075 24/14 A3002 RMK AO2 SLP164 T02440139
Observed Flight Rules
Aug-19 @ 16:53 UTC
(19 minutes ago)
VFR
Wind Visibility
50° at 10 knots
 Gusting to 16 knots
10 miles
Clouds
  • Few at 7,500' AGL
Temperature Dewpoint
24°C / 75°F 14°C / 57°F
Humidity Altimeter Pressure
54% 30.02" Hg 1016.4 hPa